Time;durP1;ratioP1;P1;durP2;ratioP2;P2;SDS_P1;SDS_P2;PMS_P1;PMS_P2;Temp;Humidity;BMP_temperature;BMP_pressure;BME280_temperature;BME280_humidity;BME280_pressure;Samples;Min_cycle;Max_cycle;Signal;HPM_P1;HPM_P2
2022/08/09 00:01:27;;;;;;;4.57;1.70;;;;;;;;;;5070281;28;20060;-78
2022/08/09 00:03:53;;;;;;;3.10;1.50;;;;;;;;;;5053784;28;20020;-78
2022/08/09 00:06:19;;;;;;;3.28;1.38;;;;;;;;;;5071491;28;20095;-77
2022/08/09 00:08:48;;;;;;;1.77;1.20;;;;;;;;;;5072143;28;20028;-77
2022/08/09 00:11:15;;;;;;;3.25;1.50;;;;;;;;;;5071518;28;20037;-77
2022/08/09 00:13:41;;;;;;;2.85;1.40;;;;;;;;;;5070175;28;20031;-76
2022/08/09 00:16:07;;;;;;;3.47;1.75;;;;;;;;;;5070035;28;20033;-77
2022/08/09 00:18:34;;;;;;;5.38;1.73;;;;;;;;;;5070841;28;20158;-77
2022/08/09 00:21:03;;;;;;;3.83;1.80;;;;;;;;;;5070128;28;20053;-76
2022/08/09 00:23:29;;;;;;;2.58;1.33;;;;;;;;;;5070406;28;20449;-77
2022/08/09 00:25:55;;;;;;;3.42;1.80;;;;;;;;;;5070003;28;20055;-77
2022/08/09 00:28:22;;;;;;;4.63;1.80;;;;;;;;;;5069865;28;20060;-77
2022/08/09 00:30:48;;;;;;;4.47;2.03;;;;;;;;;;5070375;28;20027;-77
2022/08/09 00:33:15;;;;;;;7.22;2.00;;;;;;;;;;5070785;28;20091;-77
2022/08/09 00:35:41;;;;;;;4.45;2.03;;;;;;;;;;5070053;28;20040;-77
2022/08/09 00:38:11;;;;;;;6.20;2.33;;;;;;;;;;5070086;28;20066;-77
2022/08/09 00:40:37;;;;;;;5.95;2.63;;;;;;;;;;5050805;28;20202;-78
2022/08/09 00:43:03;;;;;;;4.35;1.83;;;;;;;;;;5077752;28;20051;-77
2022/08/09 00:45:29;;;;;;;3.22;1.40;;;;;;;;;;5079170;28;20028;-77
2022/08/09 00:47:55;;;;;;;4.60;1.77;;;;;;;;;;5070389;28;20081;-77
2022/08/09 00:50:21;;;;;;;2.42;1.10;;;;;;;;;;5051575;28;20036;-77
2022/08/09 00:52:47;;;;;;;4.18;1.60;;;;;;;;;;5069724;28;20495;-77
2022/08/09 00:55:13;;;;;;;5.13;1.75;;;;;;;;;;5069532;28;20081;-77
2022/08/09 00:57:40;;;;;;;6.03;2.13;;;;;;;;;;5069809;28;20036;-77
2022/08/09 01:00:08;;;;;;;4.35;2.00;;;;;;;;;;5069752;28;20080;-76
2022/08/09 01:02:35;;;;;;;5.95;2.17;;;;;;;;;;5072712;28;20402;-78
2022/08/09 01:05:12;;;;;;;5.15;1.60;;;;;;;;;;5069391;28;20078;-78
2022/08/09 01:07:40;;;;;;;4.75;2.00;;;;;;;;;;5077471;28;20494;-77
2022/08/09 01:10:09;;;;;;;4.90;2.45;;;;;;;;;;5088849;28;20055;-78
2022/08/09 01:12:44;;;;;;;3.63;1.95;;;;;;;;;;5089131;28;20028;-77
2022/08/09 01:15:13;;;;;;;5.28;2.50;;;;;;;;;;5089160;28;20024;-77
2022/08/09 01:17:41;;;;;;;4.85;1.90;;;;;;;;;;5089154;28;20953;-77
2022/08/09 01:20:09;;;;;;;6.72;2.13;;;;;;;;;;5071103;28;20082;-78
2022/08/09 01:22:53;;;;;;;3.80;2.03;;;;;;;;;;5089366;28;20113;-77
2022/08/09 01:25:39;;;;;;;7.15;2.75;;;;;;;;;;5088967;28;20096;-77
2022/08/09 01:28:06;;;;;;;4.65;2.00;;;;;;;;;;5091868;28;20028;-78
2022/08/09 01:30:34;;;;;;;4.55;2.10;;;;;;;;;;5090912;28;20035;-77
2022/08/09 01:33:01;;;;;;;2.63;1.88;;;;;;;;;;5089525;28;20035;-77
2022/08/09 01:35:40;;;;;;;4.45;1.77;;;;;;;;;;5088614;28;20023;-77
2022/08/09 01:38:08;;;;;;;2.85;2.00;;;;;;;;;;5071693;28;20478;-77
2022/08/09 01:40:35;;;;;;;3.42;1.48;;;;;;;;;;5089164;28;20059;-77
2022/08/09 01:43:01;;;;;;;4.43;2.20;;;;;;;;;;5088230;28;20492;-78
2022/08/09 01:45:28;;;;;;;7.25;2.70;;;;;;;;;;5089135;28;20056;-77
2022/08/09 01:47:55;;;;;;;3.35;1.95;;;;;;;;;;5085158;28;20081;-78
2022/08/09 01:50:23;;;;;;;4.00;1.83;;;;;;;;;;5073299;28;20199;-77
2022/08/09 01:52:49;;;;;;;3.95;2.00;;;;;;;;;;5070334;28;20025;-77
2022/08/09 01:55:16;;;;;;;5.53;2.22;;;;;;;;;;5054904;28;20063;-78
2022/08/09 01:57:44;;;;;;;2.42;1.63;;;;;;;;;;5072772;28;20017;-77
2022/08/09 02:00:11;;;;;;;2.85;1.60;;;;;;;;;;5072844;28;20486;-76
2022/08/09 02:02:43;;;;;;;2.33;1.35;;;;;;;;;;5087960;28;20048;-76
2022/08/09 02:05:10;;;;;;;4.35;2.20;;;;;;;;;;5093240;28;20035;-77
2022/08/09 02:07:37;;;;;;;5.28;2.90;;;;;;;;;;5091904;28;20031;-77
2022/08/09 02:10:06;;;;;;;3.13;1.85;;;;;;;;;;5092644;28;20063;-77
2022/08/09 02:12:36;;;;;;;6.13;3.42;;;;;;;;;;5092752;28;20035;-77
2022/08/09 02:15:04;;;;;;;4.18;2.50;;;;;;;;;;5092251;28;20040;-77
2022/08/09 02:17:31;;;;;;;5.03;2.60;;;;;;;;;;5092937;28;20024;-77
2022/08/09 02:19:57;;;;;;;4.22;2.40;;;;;;;;;;5092276;28;20104;-78
2022/08/09 02:22:44;;;;;;;6.32;2.80;;;;;;;;;;5092311;28;20087;-77
2022/08/09 02:25:15;;;;;;;5.53;2.60;;;;;;;;;;5092658;28;20051;-77
2022/08/09 02:27:45;;;;;;;6.07;2.75;;;;;;;;;;5092071;28;20127;-77
2022/08/09 02:30:11;;;;;;;7.72;3.00;;;;;;;;;;5084227;28;20043;-77
2022/08/09 02:32:40;;;;;;;5.97;2.88;;;;;;;;;;5072269;28;20049;-78
2022/08/09 02:35:09;;;;;;;3.10;1.80;;;;;;;;;;5072379;28;20060;-78
2022/08/09 02:37:37;;;;;;;3.97;2.20;;;;;;;;;;5077576;28;20107;-77
2022/08/09 02:40:05;;;;;;;6.53;3.35;;;;;;;;;;5090753;28;20039;-78
2022/08/09 02:42:34;;;;;;;4.78;2.85;;;;;;;;;;5092154;28;20035;-78
2022/08/09 02:45:02;;;;;;;4.50;2.53;;;;;;;;;;5092128;28;20035;-78
2022/08/09 02:47:30;;;;;;;6.20;3.10;;;;;;;;;;5092591;28;20046;-77
2022/08/09 02:49:59;;;;;;;5.95;3.03;;;;;;;;;;5091927;28;20055;-77
2022/08/09 02:52:34;;;;;;;4.38;2.58;;;;;;;;;;5068362;28;20042;-78
2022/08/09 02:55:00;;;;;;;4.35;2.92;;;;;;;;;;5061807;28;20488;-77
2022/08/09 02:57:27;;;;;;;5.65;4.05;;;;;;;;;;5091845;28;20028;-78
2022/08/09 02:59:54;;;;;;;7.22;4.35;;;;;;;;;;5070233;28;20039;-77
2022/08/09 03:02:22;;;;;;;6.32;3.55;;;;;;;;;;5085172;28;20054;-77
2022/08/09 03:04:49;;;;;;;4.32;2.40;;;;;;;;;;5090746;28;20043;-78
2022/08/09 03:07:16;;;;;;;4.60;3.08;;;;;;;;;;5072860;28;20417;-77
2022/08/09 03:09:44;;;;;;;7.35;4.28;;;;;;;;;;5091755;28;20051;-78
2022/08/09 03:12:11;;;;;;;5.47;3.35;;;;;;;;;;5091876;28;20028;-79
2022/08/09 03:14:38;;;;;;;7.32;4.65;;;;;;;;;;5082830;28;20020;-77
2022/08/09 03:17:05;;;;;;;10.05;5.55;;;;;;;;;;5071412;28;20036;-77
2022/08/09 03:19:32;;;;;;;13.27;7.07;;;;;;;;;;5071185;28;20562;-78
2022/08/09 03:21:59;;;;;;;9.25;5.85;;;;;;;;;;5073429;28;20068;-77
2022/08/09 03:24:25;;;;;;;11.82;7.03;;;;;;;;;;5091506;28;20051;-77
2022/08/09 03:26:51;;;;;;;10.50;6.47;;;;;;;;;;5091567;28;20756;-77
2022/08/09 03:29:18;;;;;;;9.48;5.65;;;;;;;;;;5091236;28;20043;-78
2022/08/09 03:31:44;;;;;;;8.02;5.35;;;;;;;;;;5090647;28;20025;-78
2022/08/09 03:34:11;;;;;;;10.15;5.82;;;;;;;;;;5091101;28;20024;-78
2022/08/09 03:36:37;;;;;;;8.93;5.85;;;;;;;;;;5081114;28;20162;-79
2022/08/09 03:39:03;;;;;;;6.82;4.60;;;;;;;;;;5088622;28;20032;-77
2022/08/09 03:41:30;;;;;;;12.30;6.20;;;;;;;;;;5090975;28;20028;-78
2022/08/09 03:43:56;;;;;;;10.57;5.95;;;;;;;;;;5072385;28;20031;-77
2022/08/09 03:46:22;;;;;;;10.88;7.78;;;;;;;;;;5068807;28;20067;-77
2022/08/09 03:48:50;;;;;;;6.95;3.67;;;;;;;;;;5070959;28;20494;-78
2022/08/09 03:51:16;;;;;;;8.35;5.38;;;;;;;;;;5090431;28;20509;-79
2022/08/09 03:53:43;;;;;;;7.97;3.92;;;;;;;;;;5091049;28;20482;-79
2022/08/09 03:56:09;;;;;;;10.18;6.57;;;;;;;;;;5089795;28;20032;-79
2022/08/09 03:58:35;;;;;;;8.68;6.15;;;;;;;;;;5090931;28;20028;-79
2022/08/09 04:01:02;;;;;;;10.65;5.47;;;;;;;;;;5086573;28;20040;-78
2022/08/09 04:03:29;;;;;;;5.90;3.50;;;;;;;;;;5074257;28;20390;-78
2022/08/09 04:05:55;;;;;;;8.18;3.72;;;;;;;;;;5050039;28;20055;-78
2022/08/09 04:08:21;;;;;;;7.57;3.75;;;;;;;;;;5050447;28;20053;-78
2022/08/09 04:10:47;;;;;;;10.00;7.95;;;;;;;;;;5050410;28;20078;-78
2022/08/09 04:13:13;;;;;;;11.27;7.78;;;;;;;;;;5049975;28;20117;-78
2022/08/09 04:15:39;;;;;;;8.10;5.45;;;;;;;;;;5080196;28;20466;-78
2022/08/09 04:18:05;;;;;;;10.63;7.35;;;;;;;;;;5072800;28;20423;-77
2022/08/09 04:20:31;;;;;;;9.80;6.07;;;;;;;;;;5069526;28;20048;-79
2022/08/09 04:22:58;;;;;;;13.68;7.68;;;;;;;;;;5070301;28;20062;-77
2022/08/09 04:25:24;;;;;;;8.50;4.90;;;;;;;;;;5070183;28;20020;-78
2022/08/09 04:27:50;;;;;;;10.48;7.97;;;;;;;;;;5070509;28;20104;-78
2022/08/09 04:30:21;;;;;;;9.32;7.22;;;;;;;;;;5077173;28;20052;-77
2022/08/09 04:32:48;;;;;;;6.45;3.55;;;;;;;;;;5070110;28;20394;-78
2022/08/09 04:35:14;;;;;;;12.20;6.85;;;;;;;;;;5070039;28;20056;-78
2022/08/09 04:37:40;;;;;;;8.45;6.13;;;;;;;;;;5068883;28;20493;-78
2022/08/09 04:40:07;;;;;;;11.02;5.25;;;;;;;;;;5069688;28;20031;-78
2022/08/09 04:42:33;;;;;;;10.07;5.43;;;;;;;;;;5051321;28;20123;-78
2022/08/09 04:45:00;;;;;;;9.18;4.55;;;;;;;;;;5049552;28;20032;-77
2022/08/09 04:47:26;;;;;;;9.27;6.32;;;;;;;;;;5067741;28;20024;-78
2022/08/09 04:49:53;;;;;;;6.03;3.78;;;;;;;;;;5069562;28;20021;-78
2022/08/09 04:52:19;;;;;;;8.18;5.68;;;;;;;;;;5050986;28;20032;-78
2022/08/09 04:54:47;;;;;;;6.65;3.63;;;;;;;;;;5069383;28;20070;-80
2022/08/09 04:57:13;;;;;;;10.52;5.25;;;;;;;;;;5071725;28;20394;-79
2022/08/09 04:59:39;;;;;;;6.28;3.38;;;;;;;;;;5072159;28;20054;-77
2022/08/09 05:02:05;;;;;;;9.63;4.32;;;;;;;;;;5070120;28;20036;-78
2022/08/09 05:04:31;;;;;;;5.90;3.20;;;;;;;;;;5069448;28;20110;-77
2022/08/09 05:06:58;;;;;;;5.18;2.95;;;;;;;;;;5068950;28;20025;-77
2022/08/09 05:09:24;;;;;;;4.93;2.25;;;;;;;;;;5052351;28;20032;-77
2022/08/09 05:11:50;;;;;;;8.02;4.05;;;;;;;;;;5069333;28;20074;-75
2022/08/09 05:14:16;;;;;;;6.13;3.65;;;;;;;;;;5068992;28;20024;-75
2022/08/09 05:16:42;;;;;;;7.82;3.80;;;;;;;;;;5071858;28;20127;-78
2022/08/09 05:19:08;;;;;;;8.25;3.08;;;;;;;;;;5089510;28;20032;-75
2022/08/09 05:21:34;;;;;;;5.05;2.05;;;;;;;;;;5089005;28;20095;-75
2022/08/09 05:24:00;;;;;;;7.43;2.78;;;;;;;;;;5072635;28;20021;-76
2022/08/09 05:26:26;;;;;;;15.55;3.83;;;;;;;;;;5068016;28;20025;-75
2022/08/09 05:28:52;;;;;;;12.07;3.50;;;;;;;;;;5066004;28;20032;-76
2022/08/09 05:31:19;;;;;;;13.75;3.72;;;;;;;;;;5067702;28;20041;-75
2022/08/09 05:33:45;;;;;;;8.40;3.60;;;;;;;;;;5072078;28;20035;-75
2022/08/09 05:36:11;;;;;;;9.15;4.07;;;;;;;;;;5082154;28;20124;-74
2022/08/09 05:38:37;;;;;;;7.53;3.90;;;;;;;;;;5068240;28;20612;-75
2022/08/09 05:41:03;;;;;;;11.57;4.20;;;;;;;;;;5067889;28;20116;-76
2022/08/09 05:43:29;;;;;;;7.93;3.80;;;;;;;;;;5066245;28;20033;-75
2022/08/09 05:45:55;;;;;;;11.75;4.43;;;;;;;;;;5068170;28;20036;-76
2022/08/09 05:48:21;;;;;;;7.32;2.10;;;;;;;;;;5070875;28;20020;-75
2022/08/09 05:50:48;;;;;;;8.48;2.60;;;;;;;;;;5086080;28;20032;-76
2022/08/09 05:53:14;;;;;;;9.95;2.70;;;;;;;;;;5073039;28;20078;-74
2022/08/09 05:55:40;;;;;;;11.48;2.25;;;;;;;;;;5081039;28;20046;-76
2022/08/09 05:58:06;;;;;;;12.10;3.15;;;;;;;;;;5074148;28;20071;-76
2022/08/09 06:00:32;;;;;;;20.67;3.13;;;;;;;;;;5068713;28;20037;-76
2022/08/09 06:02:59;;;;;;;22.08;3.58;;;;;;;;;;5067515;28;20116;-78
2022/08/09 06:05:25;;;;;;;11.50;3.55;;;;;;;;;;5067114;28;20063;-74
2022/08/09 06:07:51;;;;;;;8.20;2.28;;;;;;;;;;5068692;28;20924;-74
2022/08/09 06:10:17;;;;;;;15.32;3.22;;;;;;;;;;5065745;28;20115;-76
2022/08/09 06:12:43;;;;;;;8.60;3.15;;;;;;;;;;5066950;28;20422;-76
2022/08/09 06:15:10;;;;;;;9.57;2.60;;;;;;;;;;5067429;28;20475;-76
2022/08/09 06:17:36;;;;;;;7.95;2.90;;;;;;;;;;5068030;28;20029;-76
2022/08/09 06:20:02;;;;;;;6.43;3.42;;;;;;;;;;5068007;28;20118;-76
2022/08/09 06:22:28;;;;;;;4.72;2.25;;;;;;;;;;5068411;28;20052;-76
2022/08/09 06:24:57;;;;;;;7.22;3.17;;;;;;;;;;5068374;28;20047;-77
2022/08/09 06:27:23;;;;;;;4.10;2.17;;;;;;;;;;5068250;28;20103;-76
2022/08/09 06:29:49;;;;;;;5.32;2.60;;;;;;;;;;5068065;28;20108;-77
2022/08/09 06:32:15;;;;;;;5.22;2.53;;;;;;;;;;5067461;28;20037;-76
2022/08/09 06:34:41;;;;;;;5.03;2.40;;;;;;;;;;5065688;28;20030;-78
2022/08/09 06:37:08;;;;;;;4.75;2.40;;;;;;;;;;5065756;28;20025;-78
2022/08/09 06:39:34;;;;;;;7.47;2.92;;;;;;;;;;5067438;28;20103;-79
2022/08/09 06:42:00;;;;;;;4.47;1.98;;;;;;;;;;5069650;28;20154;-77
2022/08/09 06:44:26;;;;;;;5.55;2.42;;;;;;;;;;5070850;28;20085;-76
2022/08/09 06:46:52;;;;;;;4.30;1.70;;;;;;;;;;5070478;28;20383;-76
2022/08/09 06:49:18;;;;;;;4.63;1.63;;;;;;;;;;5070941;28;20093;-76
2022/08/09 06:51:44;;;;;;;5.72;2.70;;;;;;;;;;5072122;28;20398;-76
2022/08/09 06:54:11;;;;;;;3.95;1.88;;;;;;;;;;5071501;28;20025;-79
2022/08/09 06:56:37;;;;;;;5.20;1.92;;;;;;;;;;5072244;28;20029;-77
2022/08/09 06:59:03;;;;;;;3.95;1.48;;;;;;;;;;5071608;28;20055;-77
2022/08/09 07:01:29;;;;;;;4.35;1.60;;;;;;;;;;5071020;28;20032;-76
2022/08/09 07:03:55;;;;;;;4.22;2.28;;;;;;;;;;5069585;28;20025;-77
2022/08/09 07:06:21;;;;;;;3.55;1.90;;;;;;;;;;5067938;28;20427;-76
2022/08/09 07:08:47;;;;;;;3.92;1.80;;;;;;;;;;5071394;28;20031;-76
2022/08/09 07:11:13;;;;;;;5.35;1.85;;;;;;;;;;5071510;28;20016;-76
2022/08/09 07:13:39;;;;;;;3.13;1.23;;;;;;;;;;5059483;28;20058;-76
2022/08/09 07:16:06;;;;;;;5.30;1.50;;;;;;;;;;5053212;28;20035;-76
2022/08/09 07:18:32;;;;;;;3.35;1.52;;;;;;;;;;5052152;28;20029;-77
2022/08/09 07:20:58;;;;;;;4.65;1.60;;;;;;;;;;5066632;28;20088;-77
2022/08/09 07:23:24;;;;;;;3.85;1.33;;;;;;;;;;5069147;28;20036;-76
2022/08/09 07:25:50;;;;;;;3.72;1.30;;;;;;;;;;5074212;28;20017;-76
2022/08/09 07:28:16;;;;;;;5.50;1.65;;;;;;;;;;5072612;28;20031;-77
2022/08/09 07:30:42;;;;;;;3.13;1.00;;;;;;;;;;5070691;28;20036;-76
2022/08/09 07:33:08;;;;;;;4.03;1.02;;;;;;;;;;5070686;28;20033;-76
2022/08/09 07:35:34;;;;;;;1.85;0.90;;;;;;;;;;5071166;28;20129;-77
2022/08/09 07:38:00;;;;;;;5.47;1.77;;;;;;;;;;5048083;28;20041;-76
2022/08/09 07:40:27;;;;;;;3.47;1.38;;;;;;;;;;5037203;28;20035;-76
2022/08/09 07:42:54;;;;;;;2.70;1.17;;;;;;;;;;5067305;28;20028;-75
2022/08/09 07:45:24;;;;;;;3.40;1.30;;;;;;;;;;5070175;28;20032;-75
2022/08/09 07:47:51;;;;;;;4.18;1.85;;;;;;;;;;5064793;28;20100;-76
2022/08/09 07:50:17;;;;;;;3.72;1.10;;;;;;;;;;5070535;28;20027;-75
2022/08/09 07:52:43;;;;;;;3.33;1.42;;;;;;;;;;5070406;28;20025;-77
2022/08/09 07:55:09;;;;;;;2.42;0.90;;;;;;;;;;5070490;28;20047;-76
2022/08/09 07:57:35;;;;;;;3.40;1.05;;;;;;;;;;5068249;28;20028;-76
2022/08/09 08:00:01;;;;;;;2.38;1.00;;;;;;;;;;5060278;28;20039;-76
2022/08/09 08:02:27;;;;;;;3.15;0.93;;;;;;;;;;5051022;28;20104;-76
2022/08/09 08:04:54;;;;;;;2.58;0.80;;;;;;;;;;5050264;28;20079;-75
2022/08/09 08:07:20;;;;;;;1.60;0.73;;;;;;;;;;5050215;28;20086;-75
2022/08/09 08:09:46;;;;;;;3.67;1.27;;;;;;;;;;5050473;28;20021;-75
2022/08/09 08:12:12;;;;;;;2.03;0.88;;;;;;;;;;5066180;28;20043;-75
2022/08/09 08:14:38;;;;;;;2.72;0.80;;;;;;;;;;5050700;28;20021;-77
2022/08/09 08:17:04;;;;;;;3.47;1.00;;;;;;;;;;5068119;28;20055;-77
2022/08/09 08:19:30;;;;;;;2.45;0.80;;;;;;;;;;5068560;28;20020;-77
2022/08/09 08:21:56;;;;;;;1.73;0.80;;;;;;;;;;5067839;28;20158;-75
2022/08/09 08:24:22;;;;;;;1.27;0.77;;;;;;;;;;5051552;28;20115;-76
2022/08/09 08:26:48;;;;;;;2.20;1.45;;;;;;;;;;5070627;28;20033;-77
2022/08/09 08:29:18;;;;;;;3.08;0.80;;;;;;;;;;5052489;28;20020;-76
2022/08/09 08:31:44;;;;;;;3.70;0.90;;;;;;;;;;5058853;28;20467;-75
2022/08/09 08:34:10;;;;;;;2.40;0.65;;;;;;;;;;5062236;28;20108;-76
2022/08/09 08:36:36;;;;;;;3.53;0.82;;;;;;;;;;5059682;28;20025;-75
2022/08/09 08:39:03;;;;;;;4.00;0.80;;;;;;;;;;5063599;28;20479;-76
2022/08/09 08:41:29;;;;;;;2.67;0.77;;;;;;;;;;5059572;28;20036;-76
2022/08/09 08:43:56;;;;;;;1.52;0.65;;;;;;;;;;5050403;28;20063;-76
2022/08/09 08:46:24;;;;;;;3.13;1.10;;;;;;;;;;5053233;28;20025;-77
2022/08/09 08:48:50;;;;;;;2.65;0.90;;;;;;;;;;5067001;28;20368;-77
2022/08/09 08:51:17;;;;;;;4.63;1.13;;;;;;;;;;5032549;28;20029;-78
2022/08/09 08:53:43;;;;;;;1.88;0.65;;;;;;;;;;5062685;28;20028;-76
2022/08/09 08:56:10;;;;;;;1.35;0.73;;;;;;;;;;5050039;28;20038;-76
2022/08/09 08:58:36;;;;;;;4.38;0.95;;;;;;;;;;5061649;28;20092;-76
2022/08/09 09:01:03;;;;;;;3.15;0.70;;;;;;;;;;5062081;28;20522;-76
2022/08/09 09:03:33;;;;;;;1.23;0.65;;;;;;;;;;5058679;28;20487;-77
2022/08/09 09:06:00;;;;;;;5.10;1.10;;;;;;;;;;5048421;28;20086;-77
2022/08/09 09:08:28;;;;;;;5.03;0.80;;;;;;;;;;5066315;28;20549;-76
2022/08/09 09:10:54;;;;;;;5.07;1.95;;;;;;;;;;5066266;28;20033;-75
2022/08/09 09:13:21;;;;;;;5.65;1.10;;;;;;;;;;5067416;28;20460;-78
2022/08/09 09:15:47;;;;;;;1.75;0.70;;;;;;;;;;5060921;28;20031;-80
2022/08/09 09:18:15;;;;;;;3.20;0.70;;;;;;;;;;5059900;28;20071;-78
2022/08/09 09:20:42;;;;;;;3.88;0.93;;;;;;;;;;5063997;28;20052;-79
2022/08/09 09:23:10;;;;;;;3.03;0.90;;;;;;;;;;5058940;28;20063;-78
2022/08/09 09:25:41;;;;;;;1.33;0.50;;;;;;;;;;5043205;28;20077;-78
2022/08/09 09:28:10;;;;;;;1.73;0.80;;;;;;;;;;5069646;28;20820;-79
2022/08/09 09:30:52;;;;;;;3.90;1.00;;;;;;;;;;5061571;28;20086;-80
2022/08/09 09:33:18;;;;;;;2.80;1.08;;;;;;;;;;5060359;28;20036;-79
2022/08/09 09:35:54;;;;;;;2.88;1.10;;;;;;;;;;5065784;28;20029;-81
2022/08/09 09:38:21;;;;;;;1.95;0.70;;;;;;;;;;5064651;28;20028;-82
2022/08/09 09:40:47;;;;;;;1.00;0.73;;;;;;;;;;5062360;28;20070;-83
2022/08/09 09:43:17;;;;;;;4.03;1.13;;;;;;;;;;5061079;28;20067;-79
2022/08/09 09:45:51;;;;;;;3.15;0.95;;;;;;;;;;5062626;28;20029;-80
2022/08/09 09:48:18;;;;;;;1.30;0.50;;;;;;;;;;5063874;28;20024;-79
2022/08/09 09:50:45;;;;;;;1.88;0.73;;;;;;;;;;5063664;28;20395;-79
2022/08/09 09:53:15;;;;;;;1.15;0.50;;;;;;;;;;5063056;28;20033;-79
2022/08/09 09:55:56;;;;;;;1.30;0.55;;;;;;;;;;5062288;28;20036;-85
2022/08/09 09:58:22;;;;;;;2.67;0.60;;;;;;;;;;5064570;28;20111;-81
2022/08/09 10:00:53;;;;;;;2.58;0.88;;;;;;;;;;5064024;28;20401;-80
2022/08/09 10:03:36;;;;;;;1.48;0.80;;;;;;;;;;5070790;28;20051;-86
2022/08/09 10:06:02;;;;;;;3.40;0.75;;;;;;;;;;5063993;28;20038;-79
2022/08/09 10:08:28;;;;;;;2.67;0.73;;;;;;;;;;5062125;28;20028;-76
2022/08/09 10:10:54;;;;;;;1.10;0.50;;;;;;;;;;5047426;28;20029;-81
2022/08/09 10:13:22;;;;;;;1.30;0.45;;;;;;;;;;5062854;28;20029;-82
2022/08/09 10:15:49;;;;;;;3.13;0.80;;;;;;;;;;5049453;28;20075;-80
2022/08/09 10:18:15;;;;;;;1.50;0.60;;;;;;;;;;5065498;28;20036;-78
2022/08/09 10:20:41;;;;;;;1.73;0.60;;;;;;;;;;5062865;28;20182;-77
2022/08/09 10:23:16;;;;;;;1.33;0.40;;;;;;;;;;5068077;28;20478;-76
2022/08/09 10:25:43;;;;;;;2.40;0.70;;;;;;;;;;5065358;28;20632;-76
2022/08/09 10:28:10;;;;;;;1.98;0.43;;;;;;;;;;5062634;28;20115;-76
2022/08/09 10:30:36;;;;;;;6.55;0.80;;;;;;;;;;5064821;28;20032;-76
2022/08/09 10:33:03;;;;;;;1.70;0.77;;;;;;;;;;5064206;28;20032;-77
2022/08/09 10:35:30;;;;;;;2.10;0.40;;;;;;;;;;5064306;28;20115;-78
2022/08/09 10:37:57;;;;;;;1.67;0.60;;;;;;;;;;5064166;28;20094;-76
2022/08/09 10:40:23;;;;;;;2.85;0.60;;;;;;;;;;5065657;28;20052;-77
2022/08/09 10:42:49;;;;;;;2.47;0.50;;;;;;;;;;5062074;28;20040;-77
2022/08/09 10:45:16;;;;;;;3.80;0.70;;;;;;;;;;5064027;28;20094;-76
2022/08/09 10:47:45;;;;;;;1.83;0.52;;;;;;;;;;5065519;28;20028;-77
2022/08/09 10:50:11;;;;;;;1.52;0.65;;;;;;;;;;5064724;28;20564;-79
2022/08/09 10:52:41;;;;;;;2.75;0.50;;;;;;;;;;5046599;28;20037;-79
2022/08/09 10:55:20;;;;;;;2.40;0.53;;;;;;;;;;5061959;28;20467;-78
2022/08/09 10:57:46;;;;;;;2.05;0.50;;;;;;;;;;5062657;28;20717;-78
2022/08/09 11:00:31;;;;;;;2.88;0.80;;;;;;;;;;5062915;28;20060;-78
2022/08/09 11:02:57;;;;;;;1.83;0.60;;;;;;;;;;5062845;28;20498;-81
2022/08/09 11:05:25;;;;;;;1.80;0.60;;;;;;;;;;5064300;28;20036;-79
2022/08/09 11:07:51;;;;;;;1.27;0.52;;;;;;;;;;5065255;28;20048;-77
2022/08/09 11:10:37;;;;;;;3.40;0.65;;;;;;;;;;5062244;28;20104;-74
2022/08/09 11:13:13;;;;;;;3.97;0.60;;;;;;;;;;5063867;28;20024;-76
2022/08/09 11:15:39;;;;;;;1.98;0.40;;;;;;;;;;5063796;28;20558;-76
2022/08/09 11:18:05;;;;;;;1.85;0.60;;;;;;;;;;5063473;28;20078;-76
2022/08/09 11:20:43;;;;;;;5.53;1.02;;;;;;;;;;5063087;28;20103;-78
2022/08/09 11:23:10;;;;;;;1.55;0.50;;;;;;;;;;5064156;28;20036;-80
2022/08/09 11:25:37;;;;;;;2.08;0.57;;;;;;;;;;5065591;28;20021;-76
2022/08/09 11:28:23;;;;;;;2.00;0.55;;;;;;;;;;5065882;28;20395;-78
2022/08/09 11:30:49;;;;;;;2.63;0.60;;;;;;;;;;5064377;28;20495;-76
2022/08/09 11:33:18;;;;;;;2.60;0.60;;;;;;;;;;5061923;28;20143;-76
2022/08/09 11:35:57;;;;;;;2.33;0.70;;;;;;;;;;5058779;28;20037;-75
2022/08/09 11:38:24;;;;;;;2.27;0.60;;;;;;;;;;5064235;28;20032;-75
2022/08/09 11:40:51;;;;;;;5.70;0.60;;;;;;;;;;5062689;28;20340;-76
2022/08/09 11:43:29;;;;;;;2.00;0.50;;;;;;;;;;5041631;28;20727;-75
2022/08/09 11:45:57;;;;;;;3.28;0.88;;;;;;;;;;5062297;28;20024;-74
2022/08/09 11:48:24;;;;;;;1.73;0.50;;;;;;;;;;5061405;28;20052;-76
2022/08/09 11:51:00;;;;;;;2.30;0.70;;;;;;;;;;5062674;28;20089;-75
2022/08/09 11:53:30;;;;;;;1.75;0.50;;;;;;;;;;5062966;28;20032;-75
2022/08/09 11:55:57;;;;;;;2.45;0.40;;;;;;;;;;5063299;28;20084;-75
2022/08/09 11:58:27;;;;;;;2.60;0.60;;;;;;;;;;5062708;28;20035;-76
2022/08/09 12:01:00;;;;;;;1.58;0.60;;;;;;;;;;5042413;28;20041;-76
2022/08/09 12:03:27;;;;;;;1.30;0.52;;;;;;;;;;5063092;28;20035;-73
2022/08/09 12:05:55;;;;;;;1.75;0.55;;;;;;;;;;5061954;28;20020;-77
2022/08/09 12:08:22;;;;;;;1.60;0.47;;;;;;;;;;5060865;28;20025;-76
2022/08/09 12:10:50;;;;;;;1.10;0.40;;;;;;;;;;5061339;28;20379;-78
2022/08/09 12:13:39;;;;;;;3.03;0.63;;;;;;;;;;5062172;28;20020;-77
2022/08/09 12:16:07;;;;;;;2.70;0.65;;;;;;;;;;5055944;28;20055;-77
2022/08/09 12:18:34;;;;;;;4.18;0.88;;;;;;;;;;5073282;28;20024;-76
2022/08/09 12:21:00;;;;;;;2.95;0.50;;;;;;;;;;5071706;28;20071;-79
2022/08/09 12:23:26;;;;;;;2.05;0.63;;;;;;;;;;5070660;28;20048;-75
2022/08/09 12:25:54;;;;;;;1.23;0.40;;;;;;;;;;5069974;28;20112;-78
2022/08/09 12:28:21;;;;;;;1.55;0.45;;;;;;;;;;5068771;28;20021;-76
2022/08/09 12:30:47;;;;;;;1.27;0.40;;;;;;;;;;5070213;28;20447;-77
2022/08/09 12:33:14;;;;;;;3.03;0.50;;;;;;;;;;5069723;28;20419;-76
2022/08/09 12:35:40;;;;;;;2.40;0.57;;;;;;;;;;5069873;28;20098;-77
2022/08/09 12:38:19;;;;;;;1.08;0.57;;;;;;;;;;5050343;28;20495;-77
2022/08/09 12:40:46;;;;;;;1.52;0.75;;;;;;;;;;5069312;28;20032;-76
2022/08/09 12:43:13;;;;;;;2.60;0.50;;;;;;;;;;5069997;28;20047;-77
2022/08/09 12:45:39;;;;;;;1.38;0.50;;;;;;;;;;5069796;28;20029;-74
2022/08/09 12:48:09;;;;;;;1.42;0.40;;;;;;;;;;5069733;28;20029;-77
2022/08/09 12:50:36;;;;;;;0.60;0.40;;;;;;;;;;5070449;28;20040;-77
2022/08/09 12:53:02;;;;;;;1.15;0.47;;;;;;;;;;5069063;28;20532;-78
2022/08/09 12:55:32;;;;;;;1.48;0.50;;;;;;;;;;5069700;28;20064;-75
2022/08/09 12:57:58;;;;;;;;;;;;;;;;;;5070290;28;20052;-77
2022/08/09 13:00:28;;;;;;;0.90;0.40;;;;;;;;;;5069696;28;19955;-77
2022/08/09 13:03:03;;;;;;;1.02;0.32;;;;;;;;;;5069624;28;20032;-76
2022/08/09 13:05:48;;;;;;;2.50;0.55;;;;;;;;;;5070176;28;20048;-76
2022/08/09 13:08:14;;;;;;;1.55;0.32;;;;;;;;;;5051408;28;20024;-78
2022/08/09 13:10:47;;;;;;;0.40;0.30;;;;;;;;;;5069525;28;20024;-78
2022/08/09 13:13:16;;;;;;;0.60;0.30;;;;;;;;;;5069288;28;20024;-77
2022/08/09 13:15:52;;;;;;;1.33;0.57;;;;;;;;;;5069806;28;20043;-76
2022/08/09 13:18:19;;;;;;;1.25;0.50;;;;;;;;;;5069902;28;20021;-74
2022/08/09 13:20:45;;;;;;;3.40;0.63;;;;;;;;;;5073903;28;20063;-78
2022/08/09 13:23:12;;;;;;;1.95;0.50;;;;;;;;;;5053057;28;20025;-76
2022/08/09 13:25:42;;;;;;;1.50;0.50;;;;;;;;;;5073106;28;20056;-76
2022/08/09 13:28:09;;;;;;;1.38;0.40;;;;;;;;;;5072505;28;20032;-78
2022/08/09 13:30:36;;;;;;;2.28;0.60;;;;;;;;;;5071875;28;20036;-77
2022/08/09 13:33:02;;;;;;;1.63;0.40;;;;;;;;;;5071380;28;20031;-75
2022/08/09 13:35:28;;;;;;;2.22;0.60;;;;;;;;;;5073848;28;20528;-75
2022/08/09 13:37:54;;;;;;;1.45;0.60;;;;;;;;;;5072659;28;20029;-76
2022/08/09 13:40:21;;;;;;;2.38;0.65;;;;;;;;;;5072074;28;20086;-76
2022/08/09 13:42:47;;;;;;;1.73;0.60;;;;;;;;;;5053315;28;20453;-75
2022/08/09 13:45:19;;;;;;;1.15;0.50;;;;;;;;;;5069657;28;20111;-74
2022/08/09 13:47:46;;;;;;;0.98;0.50;;;;;;;;;;5070528;28;20031;-77
2022/08/09 13:50:18;;;;;;;2.15;0.40;;;;;;;;;;5074341;28;20720;-75
2022/08/09 13:52:44;;;;;;;2.78;0.55;;;;;;;;;;5074626;28;20074;-76
2022/08/09 13:55:11;;;;;;;2.08;0.50;;;;;;;;;;5074350;28;20387;-76
2022/08/09 13:57:38;;;;;;;3.83;0.60;;;;;;;;;;5062843;28;20021;-75
2022/08/09 14:00:05;;;;;;;3.25;0.85;;;;;;;;;;5067813;28;20025;-73
2022/08/09 14:02:31;;;;;;;2.45;0.52;;;;;;;;;;5064439;28;20037;-75
2022/08/09 14:04:57;;;;;;;1.50;0.43;;;;;;;;;;5067527;28;20016;-76
2022/08/09 14:07:23;;;;;;;2.15;0.75;;;;;;;;;;5064284;28;20477;-78
2022/08/09 14:09:51;;;;;;;1.73;0.73;;;;;;;;;;5066547;28;20027;-76
2022/08/09 14:12:17;;;;;;;1.92;0.50;;;;;;;;;;5065749;28;20089;-77
2022/08/09 14:14:43;;;;;;;2.50;0.45;;;;;;;;;;5046631;28;20059;-78
2022/08/09 14:17:11;;;;;;;1.92;0.45;;;;;;;;;;5062850;28;20058;-78
2022/08/09 14:19:37;;;;;;;2.83;0.45;;;;;;;;;;5046816;28;20609;-78
2022/08/09 14:22:04;;;;;;;2.90;0.52;;;;;;;;;;5062494;28;20572;-76
2022/08/09 14:24:30;;;;;;;1.50;0.40;;;;;;;;;;5066634;28;20067;-79
2022/08/09 14:26:56;;;;;;;2.05;0.60;;;;;;;;;;5063565;28;20024;-78
2022/08/09 14:29:22;;;;;;;3.00;0.70;;;;;;;;;;5064027;28;20017;-79
2022/08/09 14:31:48;;;;;;;1.65;0.40;;;;;;;;;;5062835;28;20052;-77
2022/08/09 14:34:14;;;;;;;3.72;0.50;;;;;;;;;;5064556;28;20060;-77
2022/08/09 14:36:40;;;;;;;2.95;0.52;;;;;;;;;;5062282;28;20471;-76
2022/08/09 14:39:06;;;;;;;2.88;0.47;;;;;;;;;;5062717;28;20043;-76
2022/08/09 14:41:32;;;;;;;2.40;0.38;;;;;;;;;;5043937;28;20041;-75
2022/08/09 14:43:58;;;;;;;2.25;0.45;;;;;;;;;;5064802;28;20153;-77
2022/08/09 14:46:25;;;;;;;1.05;0.47;;;;;;;;;;5063503;28;20151;-75